Time;durP1;ratioP1;P1;durP2;ratioP2;P2;SDS_P1;SDS_P2;PMS_P1;PMS_P2;Temp;Humidity;BMP_temperature;BMP_pressure;BME280_temperature;BME280_humidity;BME280_pressure;Samples;Min_cycle;Max_cycle;Signal;HPM_P1;HPM_P2
2022/05/10 00:01:10;;;;;;;;;;;;;;;;;;5054533;28;19936;-54
2022/05/10 00:03:37;;;;;;;;;;;;;;;;;;5054180;28;19909;-52
2022/05/10 00:06:03;;;;;;;;;;;;;;;;;;5055042;28;19913;-51
2022/05/10 00:08:30;;;;;;;;;;;;;;;;;;5055182;28;19936;-52
2022/05/10 00:10:56;;;;;;;;;;;;;;;;;;5054919;28;19909;-52
2022/05/10 00:13:23;;;;;;;;;;;;;;;;;;5053823;28;20012;-54
2022/05/10 00:15:50;;;;;;;;;;;;;;;;;;5053951;28;19932;-53
2022/05/10 00:18:16;;;;;;;;;;;;;;;;;;5054405;28;19978;-50
2022/05/10 00:20:42;;;;;;;;;;;;;;;;;;5054274;28;20348;-50
2022/05/10 00:23:09;;;;;;;;;;;;;;;;;;5053934;28;20398;-51
2022/05/10 00:25:35;;;;;;;;;;;;;;;;;;5053850;28;19919;-49
2022/05/10 00:28:02;;;;;;;;;;;;;;;;;;5054172;28;20378;-49
2022/05/10 00:30:28;;;;;;;;;;;;;;;;;;5053882;28;19932;-51
2022/05/10 00:32:55;;;;;;;;;;;;;;;;;;5052385;28;20248;-46
2022/05/10 00:35:21;;;;;;;;;;;;;;;;;;5053300;28;20338;-43
2022/05/10 00:37:48;;;;;;;;;;;;;;;;;;5053764;28;19936;-43
2022/05/10 00:40:14;;;;;;;;;;;;;;;;;;5054128;28;19999;-43
2022/05/10 00:42:41;;;;;;;;;;;;;;;;;;5053695;28;19917;-43
2022/05/10 00:45:07;;;;;;;;;;;;;;;;;;5053513;28;19909;-46
2022/05/10 00:47:34;;;;;;;;;;;;;;;;;;5053088;28;19988;-50
2022/05/10 00:50:00;;;;;;;;;;;;;;;;;;5053129;28;20382;-49
2022/05/10 00:52:27;;;;;;;;;;;;;;;;;;5055667;28;19908;-51
2022/05/10 00:54:53;;;;;;;;;;;;;;;;;;5073390;28;19916;-51
2022/05/10 00:57:19;;;;;;;;;;;;;;;;;;5073724;28;19920;-52
2022/05/10 00:59:46;;;;;;;;;;;;;;;;;;5073111;28;19993;-54
2022/05/10 01:02:12;;;;;;;;;;;;;;;;;;5073066;28;19912;-49
2022/05/10 01:04:39;;;;;;;;;;;;;;;;;;5073478;28;19915;-53
2022/05/10 01:07:05;;;;;;;;;;;;;;;;;;5073171;28;20337;-57
2022/05/10 01:09:32;;;;;;;;;;;;;;;;;;5073181;28;19908;-50
2022/05/10 01:11:58;;;;;;;;;;;;;;;;;;5072543;28;19916;-49
2022/05/10 01:14:25;;;;;;;;;;;;;;;;;;5072929;28;20282;-50
2022/05/10 01:16:51;;;;;;;;;;;;;;;;;;5071697;28;19908;-50
2022/05/10 01:19:18;;;;;;;;;;;;;;;;;;5073272;28;19987;-54
2022/05/10 01:21:44;;;;;;;;;;;;;;;;;;5072654;28;19908;-48
2022/05/10 01:24:11;;;;;;;;;;;;;;;;;;5071785;28;19931;-51
2022/05/10 01:26:37;;;;;;;;;;;;;;;;;;5073256;28;20058;-46
2022/05/10 01:29:04;;;;;;;;;;;;;;;;;;5072936;28;19912;-46
2022/05/10 01:31:30;;;;;;;;;;;;;;;;;;5072914;28;19961;-50
2022/05/10 01:33:56;;;;;;;;;;;;;;;;;;5072663;28;19913;-54
2022/05/10 01:36:26;;;;;;;;;;;;;;;;;;5073057;28;19919;-47
2022/05/10 01:38:53;;;;;;;;;;;;;;;;;;5073165;28;19916;-50
2022/05/10 01:41:19;;;;;;;;;;;;;;;;;;5073499;28;20348;-57
2022/05/10 01:43:45;;;;;;;;;;;;;;;;;;5072827;28;19908;-55
2022/05/10 01:46:12;;;;;;;;;;;;;;;;;;5072765;28;19913;-50
2022/05/10 01:48:38;;;;;;;;;;;;;;;;;;5072009;28;19909;-50
2022/05/10 01:51:05;;;;;;;;;;;;;;;;;;5072658;28;19908;-48
2022/05/10 01:53:31;;;;;;;;;;;;;;;;;;5072724;28;19970;-52
2022/05/10 01:55:58;;;;;;;;;;;;;;;;;;5072239;28;19920;-50
2022/05/10 01:58:24;;;;;;;;;;;;;;;;;;5072229;28;19943;-58
2022/05/10 02:00:54;;;;;;;;;;;;;;;;;;5072109;28;19908;-51
2022/05/10 02:03:21;;;;;;;;;;;;;;;;;;5072168;28;19908;-58
2022/05/10 02:05:47;;;;;;;;;;;;;;;;;;5071978;28;19909;-54
2022/05/10 02:08:14;;;;;;;;;;;;;;;;;;5072839;28;19927;-58
2022/05/10 02:10:41;;;;;;;;;;;;;;;;;;5072181;28;19915;-53
2022/05/10 02:13:07;;;;;;;;;;;;;;;;;;5071991;28;19908;-46
2022/05/10 02:15:34;;;;;;;;;;;;;;;;;;5072464;28;19916;-55
2022/05/10 02:18:00;;;;;;;;;;;;;;;;;;5072076;28;19920;-52
2022/05/10 02:20:28;;;;;;;;;;;;;;;;;;5071746;28;19909;-56
2022/05/10 02:22:54;;;;;;;;;;;;;;;;;;5072496;28;19912;-48
2022/05/10 02:25:21;;;;;;;;;;;;;;;;;;5072051;28;19909;-56
2022/05/10 02:27:47;;;;;;;;;;;;;;;;;;5069922;28;19962;-58
2022/05/10 02:30:14;;;;;;;;;;;;;;;;;;5072290;28;19915;-57
2022/05/10 02:35:28;;;;;;;;;;;;;;;;;;5071485;28;20369;-54
2022/05/10 02:37:54;;;;;;;;;;;;;;;;;;5071570;28;19912;-55
2022/05/10 02:40:21;;;;;;;;;;;;;;;;;;5071621;28;19936;-53
2022/05/10 02:42:48;;;;;;;;;;;;;;;;;;5071640;28;19908;-57
2022/05/10 02:45:18;;;;;;;;;;;;;;;;;;5070070;28;19939;-51
2022/05/10 02:47:44;;;;;;;;;;;;;;;;;;5070676;28;19909;-51
2022/05/10 02:50:10;;;;;;;;;;;;;;;;;;5071812;28;20046;-57
2022/05/10 02:52:38;;;;;;;;;;;;;;;;;;5071938;28;19915;-59
2022/05/10 02:55:04;;;;;;;;;;;;;;;;;;5071895;28;19938;-54
2022/05/10 02:57:31;;;;;;;;;;;;;;;;;;5071711;28;19912;-59
2022/05/10 02:59:57;;;;;;;;;;;;;;;;;;5074359;28;19915;-52
2022/05/10 03:02:23;;;;;;;;;;;;;;;;;;5075826;28;19916;-57
2022/05/10 03:04:50;;;;;;;;;;;;;;;;;;5075742;28;19909;-49
2022/05/10 03:07:16;;;;;;;;;;;;;;;;;;5075505;28;20314;-53
2022/05/10 03:09:43;;;;;;;;;;;;;;;;;;5075301;28;20274;-53
2022/05/10 03:12:09;;;;;;;;;;;;;;;;;;5075470;28;19909;-52
2022/05/10 03:14:36;;;;;;;;;;;;;;;;;;5075504;28;19995;-52
2022/05/10 03:17:04;;;;;;;;;;;;;;;;;;5075043;28;19909;-46
2022/05/10 03:19:30;;;;;;;;;;;;;;;;;;5075973;28;19912;-47
2022/05/10 03:21:57;;;;;;;;;;;;;;;;;;5075258;28;19909;-57
2022/05/10 03:24:23;;;;;;;;;;;;;;;;;;5075516;28;19927;-52
2022/05/10 03:26:50;;;;;;;;;;;;;;;;;;5074973;28;20424;-50
2022/05/10 03:29:16;;;;;;;;;;;;;;;;;;5074537;28;20315;-52
2022/05/10 03:31:42;;;;;;;;;;;;;;;;;;5074596;28;19935;-49
2022/05/10 03:36:54;;;;;;;;;;;;;;;;;;5074948;28;19915;-51
2022/05/10 03:39:20;;;;;;;;;;;;;;;;;;5074827;28;19926;-53
2022/05/10 03:41:47;;;;;;;;;;;;;;;;;;5074579;28;19919;-55
2022/05/10 03:44:13;;;;;;;;;;;;;;;;;;5074740;28;19951;-51
2022/05/10 03:46:40;;;;;;;;;;;;;;;;;;5075033;28;19908;-51
2022/05/10 03:49:06;;;;;;;;;;;;;;;;;;5074656;28;19954;-55
2022/05/10 03:51:32;;;;;;;;;;;;;;;;;;5074278;28;19916;-54
2022/05/10 03:53:59;;;;;;;;;;;;;;;;;;5074418;28;20017;-55
2022/05/10 03:56:25;;;;;;;;;;;;;;;;;;5074465;28;19954;-52
2022/05/10 03:58:52;;;;;;;;;;;;;;;;;;5074413;28;19916;-49
2022/05/10 04:01:19;;;;;;;;;;;;;;;;;;5074467;28;19909;-54
2022/05/10 04:03:45;;;;;;;;;;;;;;;;;;5073820;28;19927;-54
2022/05/10 04:06:12;;;;;;;;;;;;;;;;;;5073677;28;20034;-51
2022/05/10 04:08:38;;;;;;;;;;;;;;;;;;5073833;28;19912;-56
2022/05/10 04:11:08;;;;;;;;;;;;;;;;;;5072892;28;20127;-48
2022/05/10 04:13:34;;;;;;;;;;;;;;;;;;5074556;28;19965;-50
2022/05/10 04:16:01;;;;;;;;;;;;;;;;;;5074814;28;19932;-55
2022/05/10 04:18:27;;;;;;;;;;;;;;;;;;5074545;28;19970;-54
2022/05/10 04:20:54;;;;;;;;;;;;;;;;;;5074380;28;19909;-53
2022/05/10 04:23:20;;;;;;;;;;;;;;;;;;5073893;28;19920;-52
2022/05/10 04:25:47;;;;;;;;;;;;;;;;;;5073958;28;20010;-51
2022/05/10 04:28:13;;;;;;;;;;;;;;;;;;5074019;28;20265;-52
2022/05/10 04:30:40;;;;;;;;;;;;;;;;;;5073806;28;20007;-56
2022/05/10 04:33:06;;;;;;;;;;;;;;;;;;5074107;28;19909;-50
2022/05/10 04:35:33;;;;;;;;;;;;;;;;;;5073625;28;19995;-53
2022/05/10 04:37:59;;;;;;;;;;;;;;;;;;5073269;28;19917;-55
2022/05/10 04:43:10;;;;;;;;;;;;;;;;;;5073471;28;19916;-57
2022/05/10 04:45:36;;;;;;;;;;;;;;;;;;5073048;28;19912;-47
2022/05/10 04:48:03;;;;;;;;;;;;;;;;;;5073810;28;19909;-49
2022/05/10 04:50:29;;;;;;;;;;;;;;;;;;5072510;28;20362;-42
2022/05/10 04:52:56;;;;;;;;;;;;;;;;;;5073554;28;20335;-47
2022/05/10 04:55:22;;;;;;;;;;;;;;;;;;5073534;28;20351;-51
2022/05/10 04:57:49;;;;;;;;;;;;;;;;;;5070708;28;19923;-48
2022/05/10 05:00:15;;;;;;;;;;;;;;;;;;5072701;28;20358;-49
2022/05/10 05:02:42;;;;;;;;;;;;;;;;;;5073553;28;19904;-46
2022/05/10 05:05:09;;;;;;;;;;;;;;;;;;5073315;28;19913;-51
2022/05/10 05:07:35;;;;;;;;;;;;;;;;;;5072608;28;19957;-42
2022/05/10 05:10:03;;;;;;;;;;;;;;;;;;5072969;28;19905;-52
2022/05/10 05:12:32;;;;;;;;;;;;;;;;;;5073090;28;19912;-55
2022/05/10 05:14:59;;;;;;;;;;;;;;;;;;5073180;28;19904;-54
2022/05/10 05:17:26;;;;;;;;;;;;;;;;;;5073419;28;19928;-50
2022/05/10 05:19:52;;;;;;;;;;;;;;;;;;5073176;28;19909;-47
2022/05/10 05:22:18;;;;;;;;;;;;;;;;;;5072876;28;20045;-49
2022/05/10 05:24:45;;;;;;;;;;;;;;;;;;5073302;28;19909;-54
2022/05/10 05:27:11;;;;;;;;;;;;;;;;;;5072451;28;20385;-47
2022/05/10 05:29:38;;;;;;;;;;;;;;;;;;5072733;28;19908;-51
2022/05/10 05:32:04;;;;;;;;;;;;;;;;;;5072934;28;20058;-55
2022/05/10 05:34:31;;;;;;;;;;;;;;;;;;5073118;28;20358;-52
2022/05/10 05:39:42;;;;;;;;;;;;;;;;;;5072346;28;20025;-50
2022/05/10 05:42:08;;;;;;;;;;;;;;;;;;5072612;28;19916;-49
2022/05/10 05:44:35;;;;;;;;;;;;;;;;;;5072301;28;19999;-51
2022/05/10 05:47:01;;;;;;;;;;;;;;;;;;5072110;28;19935;-54
2022/05/10 05:49:28;;;;;;;;;;;;;;;;;;5072564;28;19916;-51
2022/05/10 05:51:54;;;;;;;;;;;;;;;;;;5072256;28;19999;-47
2022/05/10 05:54:21;;;;;;;;;;;;;;;;;;5073051;28;19962;-49
2022/05/10 05:56:47;;;;;;;;;;;;;;;;;;5072052;28;20355;-57
2022/05/10 05:59:14;;;;;;;;;;;;;;;;;;5072005;28;20319;-57
2022/05/10 06:01:40;;;;;;;;;;;;;;;;;;5072078;28;20347;-47
2022/05/10 06:04:07;;;;;;;;;;;;;;;;;;5072687;28;19954;-53
2022/05/10 06:06:33;;;;;;;;;;;;;;;;;;5072108;28;19967;-54
2022/05/10 06:08:59;;;;;;;;;;;;;;;;;;5072193;28;19915;-53
2022/05/10 06:11:26;;;;;;;;;;;;;;;;;;5072240;28;19991;-53
2022/05/10 06:13:52;;;;;;;;;;;;;;;;;;5072183;28;19909;-49
2022/05/10 06:16:19;;;;;;;;;;;;;;;;;;5072072;28;19950;-49
2022/05/10 06:18:45;;;;;;;;;;;;;;;;;;5072225;28;19985;-53
2022/05/10 06:21:12;;;;;;;;;;;;;;;;;;5072076;28;19915;-51
2022/05/10 06:23:38;;;;;;;;;;;;;;;;;;5072437;28;19948;-57
2022/05/10 06:26:05;;;;;;;;;;;;;;;;;;5072262;28;20029;-47
2022/05/10 06:28:31;;;;;;;;;;;;;;;;;;5070191;28;20363;-49
2022/05/10 06:30:58;;;;;;;;;;;;;;;;;;5072395;28;20350;-53
2022/05/10 06:33:25;;;;;;;;;;;;;;;;;;5072131;28;20371;-52
2022/05/10 06:35:53;;;;;;;;;;;;;;;;;;5071878;28;20331;-56
2022/05/10 06:38:24;;;;;;;;;;;;;;;;;;5072513;28;20326;-52
2022/05/10 06:40:51;;;;;;;;;;;;;;;;;;5072450;28;19955;-52
2022/05/10 06:43:17;;;;;;;;;;;;;;;;;;5072171;28;20370;-52
2022/05/10 06:45:43;;;;;;;;;;;;;;;;;;5071642;28;19965;-50
2022/05/10 06:48:10;;;;;;;;;;;;;;;;;;5061996;28;20302;-44
2022/05/10 06:50:37;;;;;;;;;;;;;;;;;;5049806;28;20355;-48
2022/05/10 06:53:03;;;;;;;;;;;;;;;;;;5047891;28;20331;-53
2022/05/10 06:55:30;;;;;;;;;;;;;;;;;;5050236;28;19909;-55
2022/05/10 06:57:56;;;;;;;;;;;;;;;;;;5048781;28;20019;-46
2022/05/10 07:00:23;;;;;;;;;;;;;;;;;;5048781;28;19967;-49
2022/05/10 07:02:49;;;;;;;;;;;;;;;;;;5046912;28;19909;-54
2022/05/10 07:05:16;;;;;;;;;;;;;;;;;;5049192;28;19909;-46
2022/05/10 07:07:42;;;;;;;;;;;;;;;;;;5049784;28;19925;-46
2022/05/10 07:10:10;;;;;;;;;;;;;;;;;;5048722;28;19909;-55
2022/05/10 07:12:37;;;;;;;;;;;;;;;;;;5046493;28;19909;-53
2022/05/10 07:15:03;;;;;;;;;;;;;;;;;;5049311;28;19913;-50
2022/05/10 07:17:29;;;;;;;;;;;;;;;;;;5048926;28;19917;-50
2022/05/10 07:19:56;;;;;;;;;;;;;;;;;;5048413;28;19917;-51
2022/05/10 07:22:22;;;;;;;;;;;;;;;;;;5046410;28;19944;-54
2022/05/10 07:24:49;;;;;;;;;;;;;;;;;;5048820;28;19916;-55
2022/05/10 07:27:15;;;;;;;;;;;;;;;;;;5049209;28;19963;-56
2022/05/10 07:29:43;;;;;;;;;;;;;;;;;;5048584;28;19908;-49
2022/05/10 07:32:10;;;;;;;;;;;;;;;;;;5047460;28;19916;-52
2022/05/10 07:34:36;;;;;;;;;;;;;;;;;;5049112;28;20377;-49
2022/05/10 07:37:03;;;;;;;;;;;;;;;;;;5049797;28;19917;-52
2022/05/10 07:39:29;;;;;;;;;;;;;;;;;;5049471;28;20398;-55
2022/05/10 07:41:59;;;;;;;;;;;;;;;;;;5046753;28;19930;-49
2022/05/10 07:44:25;;;;;;;;;;;;;;;;;;5051115;28;20425;-45
2022/05/10 07:46:52;;;;;;;;;;;;;;;;;;5051195;28;19915;-49
2022/05/10 07:49:18;;;;;;;;;;;;;;;;;;5052354;28;19909;-52
2022/05/10 07:51:45;;;;;;;;;;;;;;;;;;5049568;28;19927;-59
2022/05/10 07:54:11;;;;;;;;;;;;;;;;;;5052413;28;20272;-48
2022/05/10 07:56:38;;;;;;;;;;;;;;;;;;5052222;28;19909;-54
2022/05/10 07:59:04;;;;;;;;;;;;;;;;;;5053960;28;19925;-57
2022/05/10 08:01:31;;;;;;;;;;;;;;;;;;5054783;28;19909;-57
2022/05/10 08:03:57;;;;;;;;;;;;;;;;;;5054399;28;19927;-58
2022/05/10 08:06:24;;;;;;;;;;;;;;;;;;5054306;28;19920;-56
2022/05/10 08:08:50;;;;;;;;;;;;;;;;;;5054329;28;20372;-56
2022/05/10 08:11:17;;;;;;;;;;;;;;;;;;5054066;28;19915;-56
2022/05/10 08:13:43;;;;;;;;;;;;;;;;;;5054292;28;19995;-55
2022/05/10 08:16:10;;;;;;;;;;;;;;;;;;5054422;28;19931;-54
2022/05/10 08:18:37;;;;;;;;;;;;;;;;;;5054936;28;19920;-46
2022/05/10 08:21:03;;;;;;;;;;;;;;;;;;5054914;28;20387;-55
2022/05/10 08:23:30;;;;;;;;;;;;;;;;;;5054455;28;20276;-53
2022/05/10 08:25:56;;;;;;;;;;;;;;;;;;5053352;28;19920;-54
2022/05/10 08:28:23;;;;;;;;;;;;;;;;;;5049165;28;19955;-55
2022/05/10 08:30:49;;;;;;;;;;;;;;;;;;5052707;28;19925;-44
2022/05/10 08:33:15;;;;;;;;;;;;;;;;;;5050974;28;19953;-53
2022/05/10 08:35:42;;;;;;;;;;;;;;;;;;5050597;28;20367;-51
2022/05/10 08:38:09;;;;;;;;;;;;;;;;;;5050861;28;20082;-50
2022/05/10 08:40:35;;;;;;;;;;;;;;;;;;5050714;28;19920;-52
2022/05/10 08:43:02;;;;;;;;;;;;;;;;;;5047353;28;19912;-50
2022/05/10 08:45:28;;;;;;;;;;;;;;;;;;5050546;28;19913;-50
2022/05/10 08:47:54;;;;;;;;;;;;;;;;;;5051200;28;19909;-52
2022/05/10 08:50:21;;;;;;;;;;;;;;;;;;5051476;28;20269;-55
2022/05/10 08:52:47;;;;;;;;;;;;;;;;;;5049160;28;20332;-49
2022/05/10 08:55:15;;;;;;;;;;;;;;;;;;5050595;28;20385;-52
2022/05/10 08:57:41;;;;;;;;;;;;;;;;;;5050627;28;19920;-47
2022/05/10 09:00:08;;;;;;;;;;;;;;;;;;5051491;28;19909;-47
2022/05/10 09:02:34;;;;;;;;;;;;;;;;;;5048747;28;19948;-51
2022/05/10 09:05:01;;;;;;;;;;;;;;;;;;5051257;28;19989;-53
2022/05/10 09:07:27;;;;;;;;;;;;;;;;;;5051289;28;20011;-51
2022/05/10 09:09:54;;;;;;;;;;;;;;;;;;5050772;28;19974;-49
2022/05/10 09:12:20;;;;;;;;;;;;;;;;;;5048624;28;19954;-43
2022/05/10 09:14:47;;;;;;;;;;;;;;;;;;5051396;28;19909;-42
2022/05/10 09:17:13;;;;;;;;;;;;;;;;;;5051235;28;19912;-46
2022/05/10 09:19:40;;;;;;;;;;;;;;;;;;5050718;28;20007;-44
2022/05/10 09:22:07;;;;;;;;;;;;;;;;;;5047843;28;19920;-42
2022/05/10 09:24:33;;;;;;;;;;;;;;;;;;5051451;28;19913;-54
2022/05/10 09:27:00;;;;;;;;;;;;;;;;;;5051291;28;19915;-51
2022/05/10 09:29:26;;;;;;;;;;;;;;;;;;5051127;28;19912;-43
2022/05/10 09:34:47;;;;;;;;;;;;;;;;;;5034133;28;19916;-55
2022/05/10 09:37:13;;;;;;;;;;;;;;;;;;5033564;28;19971;-50
2022/05/10 09:39:40;;;;;;;;;;;;;;;;;;5034168;28;19917;-52
2022/05/10 09:42:06;;;;;;;;;;;;;;;;;;5033876;28;20012;-55
2022/05/10 09:44:33;;;;;;;;;;;;;;;;;;5032880;28;20435;-45
2022/05/10 09:46:59;;;;;;;;;;;;;;;;;;5033800;28;19966;-53
2022/05/10 09:49:26;;;;;;;;;;;;;;;;;;5031929;28;19909;-52
2022/05/10 09:51:52;;;;;;;;;;;;;;;;;;5032947;28;20352;-53
2022/05/10 09:54:19;;;;;;;;;;;;;;;;;;5033346;28;19909;-54
2022/05/10 09:56:45;;;;;;;;;;;;;;;;;;5033550;28;19916;-54
2022/05/10 09:59:12;;;;;;;;;;;;;;;;;;5033427;28;19940;-58
2022/05/10 10:01:38;;;;;;;;;;;;;;;;;;5033435;28;19913;-48
2022/05/10 10:04:05;;;;;;;;;;;;;;;;;;5033957;28;19909;-53
2022/05/10 10:06:31;;;;;;;;;;;;;;;;;;5033540;28;20315;-52
2022/05/10 10:08:58;;;;;;;;;;;;;;;;;;5033018;28;19909;-54
2022/05/10 10:11:24;;;;;;;;;;;;;;;;;;5033373;28;20368;-52
2022/05/10 10:13:51;;;;;;;;;;;;;;;;;;5033293;28;19909;-52
2022/05/10 10:16:18;;;;;;;;;;;;;;;;;;5032541;28;19955;-53
2022/05/10 10:18:44;;;;;;;;;;;;;;;;;;5032366;28;20358;-46
2022/05/10 10:21:11;;;;;;;;;;;;;;;;;;5033489;28;19916;-56
2022/05/10 10:23:37;;;;;;;;;;;;;;;;;;5033260;28;19905;-56
2022/05/10 10:26:04;;;;;;;;;;;;;;;;;;5044243;28;19938;-53
2022/05/10 10:28:31;;;;;;;;;;;;;;;;;;5051249;28;20378;-50
2022/05/10 10:30:57;;;;;;;;;;;;;;;;;;5051770;28;19971;-56
2022/05/10 10:33:24;;;;;;;;;;;;;;;;;;5049102;28;20033;-53
2022/05/10 10:35:50;;;;;;;;;;;;;;;;;;5050706;28;20284;-52
2022/05/10 10:38:17;;;;;;;;;;;;;;;;;;5050451;28;19972;-54
2022/05/10 10:40:43;;;;;;;;;;;;;;;;;;5049787;28;19913;-56
2022/05/10 10:43:10;;;;;;;;;;;;;;;;;;5049025;28;20050;-55
2022/05/10 10:45:40;;;;;;;;;;;;;;;;;;5050674;28;19916;-50
2022/05/10 10:48:06;;;;;;;;;;;;;;;;;;5049259;28;20505;-55
2022/05/10 10:50:33;;;;;;;;;;;;;;;;;;5050289;28;19909;-52
2022/05/10 10:52:59;;;;;;;;;;;;;;;;;;5048003;28;19912;-53
2022/05/10 10:55:26;;;;;;;;;;;;;;;;;;5049364;28;20417;-50
2022/05/10 10:57:52;;;;;;;;;;;;;;;;;;5049658;28;19913;-47
2022/05/10 11:00:19;;;;;;;;;;;;;;;;;;5050588;28;19920;-63
2022/05/10 11:02:45;;;;;;;;;;;;;;;;;;5049278;28;20371;-49
2022/05/10 11:05:12;;;;;;;;;;;;;;;;;;5047147;28;20271;-52
2022/05/10 11:07:38;;;;;;;;;;;;;;;;;;5049358;28;19920;-55
2022/05/10 11:10:05;;;;;;;;;;;;;;;;;;5050094;28;19912;-53
2022/05/10 11:12:31;;;;;;;;;;;;;;;;;;5050983;28;19936;-55
2022/05/10 11:14:58;;;;;;;;;;;;;;;;;;5047897;28;19915;-55
2022/05/10 11:17:24;;;;;;;;;;;;;;;;;;5050374;28;19912;-44
2022/05/10 11:19:51;;;;;;;;;;;;;;;;;;5052047;28;20355;-48
2022/05/10 11:22:17;;;;;;;;;;;;;;;;;;5053555;28;20015;-47
2022/05/10 11:24:43;;;;;;;;;;;;;;;;;;5050942;28;19958;-48
2022/05/10 11:27:10;;;;;;;;;;;;;;;;;;5053610;28;19908;-51
2022/05/10 11:29:36;;;;;;;;;;;;;;;;;;5053319;28;19909;-48
2022/05/10 11:32:03;;;;;;;;;;;;;;;;;;5053819;28;20395;-45
2022/05/10 11:34:30;;;;;;;;;;;;;;;;;;5050826;28;19909;-54
2022/05/10 11:36:59;;;;;;;;;;;;;;;;;;5053495;28;19909;-47
2022/05/10 11:39:26;;;;;;;;;;;;;;;;;;5053855;28;20409;-53
2022/05/10 11:41:53;;;;;;;;;;;;;;;;;;5053341;28;20279;-50
2022/05/10 11:44:20;;;;;;;;;;;;;;;;;;5051326;28;19956;-55
2022/05/10 11:46:47;;;;;;;;;;;;;;;;;;5053726;28;19908;-47
2022/05/10 11:49:13;;;;;;;;;;;;;;;;;;5054073;28;19913;-49
2022/05/10 11:51:42;;;;;;;;;;;;;;;;;;5053275;28;19909;-56
2022/05/10 11:54:09;;;;;;;;;;;;;;;;;;5051177;28;20007;-51
2022/05/10 11:56:36;;;;;;;;;;;;;;;;;;5053658;28;19912;-55
2022/05/10 11:59:02;;;;;;;;;;;;;;;;;;5053274;28;19971;-50
2022/05/10 12:01:30;;;;;;;;;;;;;;;;;;5053379;28;19916;-54
2022/05/10 12:03:56;;;;;;;;;;;;;;;;;;5050523;28;20016;-50
2022/05/10 12:06:25;;;;;;;;;;;;;;;;;;5053446;28;19967;-48
2022/05/10 12:08:52;;;;;;;;;;;;;;;;;;5053392;28;19917;-48
2022/05/10 12:11:18;;;;;;;;;;;;;;;;;;5053161;28;19983;-51
2022/05/10 12:22:00;;;;;;;;;;;;;;;;;;5052320;28;19916;-53
2022/05/10 12:24:26;;;;;;;;;;;;;;;;;;5050052;28;20251;-52
2022/05/10 12:26:53;;;;;;;;;;;;;;;;;;5051934;28;19912;-56
2022/05/10 12:29:19;;;;;;;;;;;;;;;;;;5052386;28;19917;-50
2022/05/10 12:31:46;;;;;;;;;;;;;;;;;;5051514;28;19916;-49
2022/05/10 12:34:13;;;;;;;;;;;;;;;;;;5050071;28;19909;-57
2022/05/10 12:36:39;;;;;;;;;;;;;;;;;;5051906;28;19916;-43
2022/05/10 12:39:06;;;;;;;;;;;;;;;;;;5052284;28;19924;-54
2022/05/10 12:41:32;;;;;;;;;;;;;;;;;;5052265;28;19913;-54
2022/05/10 12:43:59;;;;;;;;;;;;;;;;;;5050184;28;19908;-54
2022/05/10 12:46:25;;;;;;;;;;;;;;;;;;5051377;28;19995;-49
2022/05/10 12:48:51;;;;;;;;;;;;;;;;;;5052074;28;19913;-51
2022/05/10 12:51:18;;;;;;;;;;;;;;;;;;5051943;28;19931;-52
2022/05/10 12:53:47;;;;;;;;;;;;;;;;;;5048911;28;19932;-42
2022/05/10 12:56:14;;;;;;;;;;;;;;;;;;5050412;28;20679;-56
2022/05/10 12:58:40;;;;;;;;;;;;;;;;;;5051834;28;19924;-50
2022/05/10 13:01:06;;;;;;;;;;;;;;;;;;5053554;28;19916;-53
2022/05/10 13:03:35;;;;;;;;;;;;;;;;;;5054375;28;19908;-57
2022/05/10 13:06:01;;;;;;;;;;;;;;;;;;5054142;28;19931;-54
2022/05/10 13:08:28;;;;;;;;;;;;;;;;;;5054323;28;19916;-54
2022/05/10 13:10:54;;;;;;;;;;;;;;;;;;5054110;28;19909;-57
2022/05/10 13:13:21;;;;;;;;;;;;;;;;;;5054121;28;19913;-55
2022/05/10 13:15:48;;;;;;;;;;;;;;;;;;5054161;28;19905;-49
2022/05/10 13:18:14;;;;;;;;;;;;;;;;;;5053888;28;20355;-53
2022/05/10 13:20:41;;;;;;;;;;;;;;;;;;5054127;28;20383;-53
2022/05/10 13:23:07;;;;;;;;;;;;;;;;;;5053931;28;19909;-54
2022/05/10 13:25:34;;;;;;;;;;;;;;;;;;5053762;28;19920;-51
2022/05/10 13:28:01;;;;;;;;;;;;;;;;;;5053117;28;20271;-54
2022/05/10 13:30:28;;;;;;;;;;;;;;;;;;5053951;28;20271;-55
2022/05/10 13:32:54;;;;;;;;;;;;;;;;;;5054145;28;20260;-55
2022/05/10 13:35:21;;;;;;;;;;;;;;;;;;5053898;28;19948;-56
2022/05/10 13:37:49;;;;;;;;;;;;;;;;;;5053099;28;19959;-57
2022/05/10 13:40:15;;;;;;;;;;;;;;;;;;5053540;28;19920;-50
2022/05/10 13:42:42;;;;;;;;;;;;;;;;;;5053507;28;19909;-56
2022/05/10 13:45:08;;;;;;;;;;;;;;;;;;5053739;28;20019;-51
2022/05/10 13:47:35;;;;;;;;;;;;;;;;;;5053580;28;19909;-56
2022/05/10 13:50:01;;;;;;;;;;;;;;;;;;5053339;28;20259;-52
2022/05/10 13:52:27;;;;;;;;;;;;;;;;;;5053335;28;19939;-55
2022/05/10 13:54:54;;;;;;;;;;;;;;;;;;5053373;28;19913;-59
2022/05/10 13:57:22;;;;;;;;;;;;;;;;;;5053475;28;20329;-53
2022/05/10 13:59:48;;;;;;;;;;;;;;;;;;5053114;28;19996;-57
2022/05/10 14:02:15;;;;;;;;;;;;;;;;;;5053199;28;19909;-50
2022/05/10 14:04:41;;;;;;;;;;;;;;;;;;5053172;28;19909;-57
2022/05/10 14:07:10;;;;;;;;;;;;;;;;;;5053032;28;20371;-52
2022/05/10 14:09:40;;;;;;;;;;;;;;;;;;5052875;28;19968;-54
2022/05/10 14:12:06;;;;;;;;;;;;;;;;;;5053326;28;19909;-53
2022/05/10 14:14:34;;;;;;;;;;;;;;;;;;5053424;28;19913;-55
2022/05/10 14:17:01;;;;;;;;;;;;;;;;;;5053251;28;19913;-53
2022/05/10 14:19:31;;;;;;;;;;;;;;;;;;5052822;28;19928;-55
2022/05/10 14:21:59;;;;;;;;;;;;;;;;;;5052750;28;20398;-52
2022/05/10 14:24:25;;;;;;;;;;;;;;;;;;5052933;28;19940;-53
2022/05/10 14:26:52;;;;;;;;;;;;;;;;;;5053003;28;19912;-52
2022/05/10 14:29:20;;;;;;;;;;;;;;;;;;5053033;28;19915;-54
2022/05/10 14:31:46;;;;;;;;;;;;;;;;;;5052708;28;19962;-51
2022/05/10 14:34:16;;;;;;;;;;;;;;;;;;5052814;28;19996;-51
2022/05/10 14:36:42;;;;;;;;;;;;;;;;;;5052861;28;19909;-42
2022/05/10 14:39:09;;;;;;;;;;;;;;;;;;5051596;28;19917;-46
2022/05/10 14:41:35;;;;;;;;;;;;;;;;;;5053073;28;20095;-48
2022/05/10 14:44:01;;;;;;;;;;;;;;;;;;5052857;28;19916;-52
2022/05/10 14:46:28;;;;;;;;;;;;;;;;;;5052785;28;19909;-43
2022/05/10 14:48:55;;;;;;;;;;;;;;;;;;5052696;28;19905;-49
2022/05/10 14:51:21;;;;;;;;;;;;;;;;;;5052748;28;19913;-50
2022/05/10 14:53:47;;;;;;;;;;;;;;;;;;5052384;28;19905;-50
2022/05/10 14:56:14;;;;;;;;;;;;;;;;;;5056189;28;20087;-49
2022/05/10 14:58:40;;;;;;;;;;;;;;;;;;5056587;28;19916;-49
2022/05/10 15:01:07;;;;;;;;;;;;;;;;;;5056719;28;20359;-44
2022/05/10 15:03:35;;;;;;;;;;;;;;;;;;5056575;28;20019;-50
2022/05/10 15:06:01;;;;;;;;;;;;;;;;;;5056409;28;19944;-45
2022/05/10 15:08:28;;;;;;;;;;;;;;;;;;5056769;28;19978;-57
2022/05/10 15:10:56;;;;;;;;;;;;;;;;;;5056573;28;19995;-49
2022/05/10 15:13:22;;;;;;;;;;;;;;;;;;5056394;28;19973;-50
2022/05/10 15:15:49;;;;;;;;;;;;;;;;;;5056358;28;19908;-47
2022/05/10 15:21:01;;;;;;;;;;;;;;;;;;5056494;28;19919;-53
2022/05/10 15:23:28;;;;;;;;;;;;;;;;;;5056145;28;19941;-49
2022/05/10 15:25:54;;;;;;;;;;;;;;;;;;5056057;28;20054;-53
2022/05/10 15:28:21;;;;;;;;;;;;;;;;;;5056198;28;19940;-52
2022/05/10 15:30:47;;;;;;;;;;;;;;;;;;5056178;28;20372;-57
2022/05/10 15:33:14;;;;;;;;;;;;;;;;;;5056180;28;20423;-54
2022/05/10 15:35:40;;;;;;;;;;;;;;;;;;5056158;28;19913;-52
2022/05/10 15:38:06;;;;;;;;;;;;;;;;;;5056192;28;19985;-50
2022/05/10 15:40:33;;;;;;;;;;;;;;;;;;5055943;28;19909;-52
2022/05/10 15:42:59;;;;;;;;;;;;;;;;;;5055757;28;19932;-52
2022/05/10 15:45:26;;;;;;;;;;;;;;;;;;5055984;28;19962;-55
2022/05/10 15:47:53;;;;;;;;;;;;;;;;;;5055624;28;20049;-56
2022/05/10 15:50:19;;;;;;;;;;;;;;;;;;5055712;28;19909;-53
2022/05/10 15:52:47;;;;;;;;;;;;;;;;;;5055670;28;19909;-50
2022/05/10 15:55:13;;;;;;;;;;;;;;;;;;5055649;28;19920;-52
2022/05/10 15:57:40;;;;;;;;;;;;;;;;;;5055485;28;19909;-51
2022/05/10 16:00:08;;;;;;;;;;;;;;;;;;5059640;28;19962;-55
2022/05/10 16:02:35;;;;;;;;;;;;;;;;;;5075634;28;20381;-57
2022/05/10 16:05:01;;;;;;;;;;;;;;;;;;5075681;28;20351;-57
2022/05/10 16:07:28;;;;;;;;;;;;;;;;;;5074200;28;20231;-51
2022/05/10 16:09:54;;;;;;;;;;;;;;;;;;5074621;28;20016;-48
2022/05/10 16:12:22;;;;;;;;;;;;;;;;;;5075544;28;19958;-57
2022/05/10 16:14:48;;;;;;;;;;;;;;;;;;5074166;28;19908;-53
2022/05/10 16:17:15;;;;;;;;;;;;;;;;;;5075471;28;19932;-54
2022/05/10 16:19:41;;;;;;;;;;;;;;;;;;5075137;28;19923;-58
2022/05/10 16:22:08;;;;;;;;;;;;;;;;;;5075325;28;19909;-52
2022/05/10 16:24:34;;;;;;;;;;;;;;;;;;5074761;28;19908;-54
2022/05/10 16:29:45;;;;;;;;;;;;;;;;;;5075008;28;19915;-53
2022/05/10 16:32:12;;;;;;;;;;;;;;;;;;5075069;28;20023;-55
2022/05/10 16:34:38;;;;;;;;;;;;;;;;;;5074859;28;19935;-51
2022/05/10 16:37:05;;;;;;;;;;;;;;;;;;5074964;28;19939;-48
2022/05/10 16:39:31;;;;;;;;;;;;;;;;;;5074824;28;19916;-53
2022/05/10 16:41:58;;;;;;;;;;;;;;;;;;5074578;28;19908;-53
2022/05/10 16:44:24;;;;;;;;;;;;;;;;;;5074913;28;20371;-54
2022/05/10 16:46:51;;;;;;;;;;;;;;;;;;5074690;28;19908;-54
2022/05/10 16:49:17;;;;;;;;;;;;;;;;;;5074958;28;19970;-51
2022/05/10 16:51:44;;;;;;;;;;;;;;;;;;5074485;28;19912;-55
2022/05/10 16:54:16;;;;;;;;;;;;;;;;;;5074366;28;20021;-55
2022/05/10 16:56:43;;;;;;;;;;;;;;;;;;5074548;28;19999;-55
2022/05/10 16:59:09;;;;;;;;;;;;;;;;;;5074601;28;19916;-52
2022/05/10 17:01:40;;;;;;;;;;;;;;;;;;5074345;28;19909;-50
2022/05/10 17:04:06;;;;;;;;;;;;;;;;;;5074219;28;19909;-50
2022/05/10 17:06:33;;;;;;;;;;;;;;;;;;5074489;28;19924;-55
2022/05/10 17:08:59;;;;;;;;;;;;;;;;;;5074047;28;20275;-49